createdAt,value
2022-11-23T00:05:46.850Z,5.59
2022-11-23T00:11:56.759Z,5.69
2022-11-23T00:18:00.712Z,5.43
2022-11-23T00:24:10.092Z,5.46
2022-11-23T00:30:12.720Z,5.46
2022-11-23T00:36:18.822Z,5.54
2022-11-23T00:42:20.763Z,5.72
2022-11-23T00:48:35.473Z,5.72
2022-11-23T00:54:37.379Z,5.85
2022-11-23T01:00:53.929Z,5.84
2022-11-23T01:13:16.136Z,5.90
2022-11-23T01:19:20.735Z,5.50
2022-11-23T01:25:23.058Z,5.78
2022-11-23T01:31:28.704Z,5.58
2022-11-23T01:37:30.615Z,5.52
2022-11-23T01:43:32.817Z,5.52
2022-11-23T01:49:48.385Z,5.30
2022-11-23T01:55:51.849Z,5.16
2022-11-23T02:01:53.866Z,4.99
2022-11-23T02:07:58.013Z,5.05
2022-11-23T02:14:03.757Z,5.23
2022-11-23T02:20:12.542Z,5.19
2022-11-23T02:26:36.984Z,5.01
2022-11-23T02:32:39.266Z,4.83
2022-11-23T02:38:41.345Z,4.83
2022-11-23T02:45:15.011Z,4.90
2022-11-23T02:51:17.104Z,4.92
2022-11-23T02:57:21.643Z,5.00
2022-11-23T03:03:23.715Z,4.90
2022-11-23T03:09:27.950Z,4.83
2022-11-23T03:15:29.960Z,5.01
2022-11-23T03:21:32.016Z,4.99
2022-11-23T03:27:34.909Z,5.26
2022-11-23T03:33:36.936Z,5.12
2022-11-23T03:39:42.886Z,5.33
2022-11-23T03:46:03.541Z,5.40
2022-11-23T03:52:05.680Z,5.19
2022-11-23T03:58:13.215Z,5.06
2022-11-23T04:04:15.239Z,5.00
2022-11-23T04:10:19.175Z,5.05
2022-11-23T04:16:21.110Z,5.27
2022-11-23T04:22:23.215Z,5.26
2022-11-23T04:28:25.157Z,5.37
2022-11-23T04:34:27.151Z,5.33
2022-11-23T04:40:48.455Z,5.18
2022-11-23T04:47:10.005Z,4.92
2022-11-23T04:53:13.296Z,5.03
2022-11-23T04:59:15.248Z,5.01
2022-11-23T05:05:20.597Z,4.96
2022-11-23T05:11:22.959Z,5.03
2022-11-23T05:17:40.259Z,5.08
2022-11-23T05:24:09.418Z,5.20
2022-11-23T05:30:44.321Z,5.33
2022-11-23T05:36:49.458Z,5.41
2022-11-23T05:43:03.015Z,5.58
2022-11-23T05:49:05.449Z,5.69
2022-11-23T05:55:08.315Z,5.85
2022-11-23T06:01:10.355Z,5.91
2022-11-23T06:07:15.381Z,5.81
2022-11-23T06:13:23.187Z,5.90
2022-11-23T06:19:32.920Z,6.10
2022-11-23T06:25:35.133Z,6.22
2022-11-23T06:31:47.522Z,6.22
2022-11-23T06:37:54.601Z,6.09
2022-11-23T06:44:12.595Z,6.01
2022-11-23T06:50:17.591Z,6.09
2022-11-23T06:56:27.693Z,6.14
2022-11-23T07:02:29.583Z,6.15
2022-11-23T07:15:23.024Z,6.04
2022-11-23T07:21:25.179Z,6.01
2022-11-23T07:27:42.665Z,6.10
2022-11-23T07:33:48.390Z,6.32
2022-11-23T07:39:57.695Z,6.35
2022-11-23T07:46:00.254Z,6.54
2022-11-23T07:52:02.261Z,6.68
2022-11-23T07:58:07.996Z,6.62
2022-11-23T08:04:09.916Z,6.71
2022-11-23T08:10:18.506Z,6.79
2022-11-23T08:16:35.234Z,6.86
2022-11-23T08:22:37.522Z,7.00
2022-11-23T08:28:39.983Z,7.13
2022-11-23T08:34:44.463Z,7.26
2022-11-23T08:40:48.582Z,7.25
2022-11-23T08:46:50.924Z,7.37
2022-11-23T08:53:01.002Z,7.44
2022-11-23T08:59:16.038Z,7.47
2022-11-23T09:05:20.049Z,7.53
2022-11-23T09:11:22.061Z,7.70
2022-11-23T09:17:32.921Z,7.52
2022-11-23T09:23:35.070Z,7.73
2022-11-23T09:29:40.009Z,8.01
2022-11-23T09:35:43.972Z,8.01
2022-11-23T09:42:13.549Z,8.29
2022-11-23T09:48:35.119Z,8.38
2022-11-23T09:54:48.339Z,8.58
2022-11-23T10:01:07.982Z,8.89
2022-11-23T10:07:41.292Z,8.93
2022-11-23T10:14:32.948Z,9.42
2022-11-23T10:20:48.393Z,9.70
2022-11-23T10:26:53.464Z,10.06
2022-11-23T10:33:50.722Z,10.03
2022-11-23T10:39:54.942Z,10.34
2022-11-23T10:46:41.044Z,10.41
2022-11-23T10:52:53.134Z,10.63
2022-11-23T10:58:57.437Z,11.22
2022-11-23T11:12:03.777Z,11.17
2022-11-23T11:18:22.496Z,11.20
2022-11-23T11:24:46.299Z,11.15
2022-11-23T11:31:15.955Z,11.45
2022-11-23T11:37:38.896Z,11.82
2022-11-23T11:44:04.956Z,12.23
2022-11-23T11:50:28.478Z,12.30
2022-11-23T11:56:52.978Z,11.85
2022-11-23T12:03:15.158Z,11.90
2022-11-23T12:09:23.044Z,12.27
2022-11-23T12:15:50.401Z,12.54
2022-11-23T12:22:36.395Z,12.40
2022-11-23T12:29:12.684Z,12.57
2022-11-23T12:36:23.598Z,12.10
2022-11-23T12:43:01.636Z,11.69
2022-11-23T12:49:38.993Z,11.24
2022-11-23T12:56:16.836Z,11.14
2022-11-23T13:02:53.046Z,11.33
2022-11-23T13:09:26.389Z,11.11
2022-11-23T13:16:11.439Z,10.86
2022-11-23T13:22:24.469Z,10.76
2022-11-23T13:28:31.591Z,10.94
2022-11-23T13:34:47.804Z,11.06
2022-11-23T13:40:49.749Z,12.07
2022-11-23T13:47:18.778Z,12.01
2022-11-23T13:53:44.395Z,11.34
2022-11-23T13:59:50.117Z,10.78
2022-11-23T14:06:01.364Z,10.37
2022-11-23T14:12:47.386Z,10.32
2022-11-23T14:18:52.064Z,9.99
2022-11-23T14:25:07.673Z,9.61
2022-11-23T14:31:13.545Z,9.46
2022-11-23T14:38:17.786Z,9.31
2022-11-23T14:44:38.448Z,9.06
2022-11-23T14:50:40.815Z,8.64
2022-11-23T14:56:52.696Z,8.37
2022-11-23T15:03:00.268Z,7.97
2022-11-23T15:09:38.841Z,7.73
2022-11-23T15:15:46.240Z,7.33
2022-11-23T15:21:57.342Z,7.01
2022-11-23T15:27:59.266Z,6.80
2022-11-23T15:34:20.687Z,6.49
2022-11-23T15:40:24.233Z,6.20
2022-11-23T15:46:43.737Z,5.91
2022-11-23T15:52:51.513Z,5.62
2022-11-23T15:58:54.533Z,5.44
2022-11-23T16:05:25.439Z,5.32
2022-11-23T16:11:36.686Z,5.26
2022-11-23T16:17:45.545Z,5.31
2022-11-23T16:23:56.885Z,5.50
2022-11-23T16:30:04.393Z,5.76
2022-11-23T16:36:09.451Z,6.24
2022-11-23T16:42:19.247Z,5.91
2022-11-23T16:48:27.112Z,5.71
2022-11-23T16:54:33.237Z,5.60
2022-11-23T17:00:36.044Z,5.53
2022-11-23T17:06:56.282Z,5.26
2022-11-23T17:13:01.538Z,5.15
2022-11-23T17:19:06.352Z,4.76
2022-11-23T17:25:15.265Z,4.72
2022-11-23T17:31:20.391Z,4.70
2022-11-23T17:37:28.106Z,4.69
2022-11-23T17:43:32.918Z,4.95
2022-11-23T17:49:46.135Z,4.75
2022-11-23T17:55:48.628Z,4.74
2022-11-23T18:02:02.807Z,4.67
2022-11-23T18:08:08.080Z,4.54
2022-11-23T18:14:18.083Z,4.39
2022-11-23T18:20:20.233Z,4.20
2022-11-23T18:26:30.469Z,4.13
2022-11-23T18:32:32.441Z,3.99
2022-11-23T18:38:47.187Z,3.99
2022-11-23T18:44:49.185Z,4.21
2022-11-23T18:51:04.993Z,3.97
2022-11-23T18:57:09.959Z,4.22
2022-11-23T19:03:16.352Z,3.94
2022-11-23T19:09:18.246Z,3.98
2022-11-23T19:15:20.243Z,4.07
2022-11-23T19:21:25.886Z,4.23
2022-11-23T19:27:38.205Z,4.25
2022-11-23T19:33:40.238Z,4.39
2022-11-23T19:39:47.749Z,4.27
2022-11-23T19:45:57.601Z,3.96
2022-11-23T19:52:03.516Z,3.77
2022-11-23T19:58:05.432Z,3.86
2022-11-23T20:04:15.475Z,3.75
2022-11-23T20:10:20.398Z,3.74
2022-11-23T20:16:26.053Z,3.68
2022-11-23T20:22:32.628Z,3.58
2022-11-23T20:28:34.868Z,3.64
2022-11-23T20:34:36.983Z,3.69
2022-11-23T20:40:51.215Z,3.77
2022-11-23T20:47:03.881Z,3.85
2022-11-23T20:53:06.065Z,4.26
2022-11-23T20:59:11.649Z,4.27
2022-11-23T21:05:23.587Z,4.36
2022-11-23T21:11:47.355Z,4.54
2022-11-23T21:17:49.767Z,4.99
2022-11-23T21:23:52.564Z,4.82
2022-11-23T21:29:55.143Z,5.00
2022-11-23T21:36:03.123Z,5.09
2022-11-23T21:42:17.226Z,5.06
2022-11-23T21:48:19.157Z,5.18
2022-11-23T21:54:27.096Z,5.24
2022-11-23T22:00:31.546Z,5.28
2022-11-23T22:06:39.091Z,5.29
2022-11-23T22:12:41.086Z,5.34
2022-11-23T22:18:55.825Z,5.39
2022-11-23T22:24:58.193Z,5.40
2022-11-23T22:31:12.432Z,5.28
2022-11-23T22:37:14.658Z,5.45
2022-11-23T22:43:25.624Z,5.30
2022-11-23T22:49:27.807Z,5.44
2022-11-23T22:55:38.806Z,5.40
2022-11-23T23:01:40.870Z,5.30
2022-11-23T23:07:43.291Z,5.28
2022-11-23T23:13:45.394Z,5.38
2022-11-23T23:19:50.109Z,5.51
2022-11-23T23:25:58.468Z,5.55
2022-11-23T23:32:03.220Z,5.42
2022-11-23T23:38:12.192Z,5.47
2022-11-23T23:44:14.691Z,5.54
2022-11-23T23:50:17.309Z,5.52
2022-11-23T23:56:26.265Z,5.55
